sensor_id;sensor_type;location;lat;lon;timestamp;pressure;altitude;pressure_sealevel;temperature;humidity
80699;BME280;70062;51.658;5.658;2023-07-08T00:00:28;101525.64;;;19.85;48.65
80699;BME280;70062;51.658;5.658;2023-07-08T00:02:53;101521.93;;;19.83;48.75
80699;BME280;70062;51.658;5.658;2023-07-08T00:05:21;101520.85;;;19.82;48.54
80699;BME280;70062;51.658;5.658;2023-07-08T00:07:47;101518.55;;;19.80;48.68
80699;BME280;70062;51.658;5.658;2023-07-08T00:10:19;101511.73;;;19.79;48.66
80699;BME280;70062;51.658;5.658;2023-07-08T00:12:48;101508.38;;;19.77;48.79
80699;BME280;70062;51.658;5.658;2023-07-08T00:15:14;101501.05;;;19.76;48.96
80699;BME280;70062;51.658;5.658;2023-07-08T00:17:41;101501.88;;;19.75;48.86
80699;BME280;70062;51.658;5.658;2023-07-08T00:22:48;101498.86;;;19.72;49.15
80699;BME280;70062;51.658;5.658;2023-07-08T00:25:16;101499.35;;;19.71;49.12
80699;BME280;70062;51.658;5.658;2023-07-08T00:27:45;101496.86;;;19.69;49.03
80699;BME280;70062;51.658;5.658;2023-07-08T00:32:46;101493.97;;;19.64;49.28
80699;BME280;70062;51.658;5.658;2023-07-08T00:35:12;101493.38;;;19.61;49.21
80699;BME280;70062;51.658;5.658;2023-07-08T00:37:37;101489.69;;;19.59;49.36
80699;BME280;70062;51.658;5.658;2023-07-08T00:40:17;101490.51;;;19.57;49.29
80699;BME280;70062;51.658;5.658;2023-07-08T00:42:44;101488.52;;;19.53;49.38
80699;BME280;70062;51.658;5.658;2023-07-08T00:47:55;101491.14;;;19.48;49.46
80699;BME280;70062;51.658;5.658;2023-07-08T00:50:21;101489.69;;;19.45;49.63
80699;BME280;70062;51.658;5.658;2023-07-08T00:52:47;101494.18;;;19.44;49.61
80699;BME280;70062;51.658;5.658;2023-07-08T00:55:13;101491.70;;;19.42;49.65
80699;BME280;70062;51.658;5.658;2023-07-08T00:57:41;101493.43;;;19.41;49.69
80699;BME280;70062;51.658;5.658;2023-07-08T01:00:11;101494.77;;;19.39;49.80
80699;BME280;70062;51.658;5.658;2023-07-08T01:02:45;101491.24;;;19.37;49.84
80699;BME280;70062;51.658;5.658;2023-07-08T01:05:14;101490.30;;;19.34;50.03
80699;BME280;70062;51.658;5.658;2023-07-08T01:07:42;101490.95;;;19.32;50.12
80699;BME280;70062;51.658;5.658;2023-07-08T01:10:20;101491.24;;;19.30;49.99
80699;BME280;70062;51.658;5.658;2023-07-08T01:12:53;101489.59;;;19.26;50.21
80699;BME280;70062;51.658;5.658;2023-07-08T01:15:22;101489.38;;;19.25;50.39
80699;BME280;70062;51.658;5.658;2023-07-08T01:17:48;101485.15;;;19.22;50.38
80699;BME280;70062;51.658;5.658;2023-07-08T01:20:19;101488.42;;;19.21;50.54
80699;BME280;70062;51.658;5.658;2023-07-08T01:22:45;101487.88;;;19.20;50.66
80699;BME280;70062;51.658;5.658;2023-07-08T01:25:11;101487.34;;;19.19;50.83
80699;BME280;70062;51.658;5.658;2023-07-08T01:27:42;101484.39;;;19.20;50.86
80699;BME280;70062;51.658;5.658;2023-07-08T01:30:10;101482.17;;;19.22;50.68
80699;BME280;70062;51.658;5.658;2023-07-08T01:32:37;101482.58;;;19.24;50.68
80699;BME280;70062;51.658;5.658;2023-07-08T01:35:04;101479.67;;;19.26;50.61
80699;BME280;70062;51.658;5.658;2023-07-08T01:37:36;101480.45;;;19.30;50.46
80699;BME280;70062;51.658;5.658;2023-07-08T01:42:46;101481.42;;;19.34;50.35
80699;BME280;70062;51.658;5.658;2023-07-08T01:45:14;101477.30;;;19.37;50.30
80699;BME280;70062;51.658;5.658;2023-07-08T01:47:47;101476.33;;;19.40;50.39
80699;BME280;70062;51.658;5.658;2023-07-08T01:50:14;101472.36;;;19.41;50.28
80699;BME280;70062;51.658;5.658;2023-07-08T01:52:40;101470.64;;;19.42;50.32
80699;BME280;70062;51.658;5.658;2023-07-08T01:55:05;101467.70;;;19.43;50.15
80699;BME280;70062;51.658;5.658;2023-07-08T01:57:31;101464.73;;;19.43;50.32
80699;BME280;70062;51.658;5.658;2023-07-08T01:59:56;101460.70;;;19.41;50.27
80699;BME280;70062;51.658;5.658;2023-07-08T02:02:22;101453.00;;;19.39;50.20
80699;BME280;70062;51.658;5.658;2023-07-08T02:04:49;101450.48;;;19.36;50.38
80699;BME280;70062;51.658;5.658;2023-07-08T02:07:15;101449.70;;;19.32;50.50
80699;BME280;70062;51.658;5.658;2023-07-08T02:09:40;101443.68;;;19.28;50.44
80699;BME280;70062;51.658;5.658;2023-07-08T02:12:06;101445.34;;;19.24;50.56
80699;BME280;70062;51.658;5.658;2023-07-08T02:14:31;101445.42;;;19.21;50.71
80699;BME280;70062;51.658;5.658;2023-07-08T02:16:56;101448.13;;;19.17;50.84
80699;BME280;70062;51.658;5.658;2023-07-08T02:19:22;101448.23;;;19.14;50.95
80699;BME280;70062;51.658;5.658;2023-07-08T02:21:50;101446.91;;;19.10;51.25
80699;BME280;70062;51.658;5.658;2023-07-08T02:24:18;101446.27;;;19.06;51.31
80699;BME280;70062;51.658;5.658;2023-07-08T02:26:44;101441.65;;;19.02;51.60
80699;BME280;70062;51.658;5.658;2023-07-08T02:29:12;101443.96;;;18.97;51.73
80699;BME280;70062;51.658;5.658;2023-07-08T02:31:38;101439.83;;;18.92;51.72
80699;BME280;70062;51.658;5.658;2023-07-08T02:34:03;101435.40;;;18.88;51.88
80699;BME280;70062;51.658;5.658;2023-07-08T02:36:29;101431.66;;;18.85;52.00
80699;BME280;70062;51.658;5.658;2023-07-08T02:38:54;101432.58;;;18.80;51.97
80699;BME280;70062;51.658;5.658;2023-07-08T02:41:19;101434.21;;;18.76;52.38
80699;BME280;70062;51.658;5.658;2023-07-08T02:43:45;101432.37;;;18.72;52.36
80699;BME280;70062;51.658;5.658;2023-07-08T02:46:11;101431.05;;;18.68;52.48
80699;BME280;70062;51.658;5.658;2023-07-08T02:48:36;101432.17;;;18.64;52.65
80699;BME280;70062;51.658;5.658;2023-07-08T02:51:03;101431.00;;;18.59;52.92
80699;BME280;70062;51.658;5.658;2023-07-08T02:53:29;101425.13;;;18.55;53.03
80699;BME280;70062;51.658;5.658;2023-07-08T02:55:55;101424.67;;;18.51;53.20
80699;BME280;70062;51.658;5.658;2023-07-08T02:58:20;101425.28;;;18.47;53.28
80699;BME280;70062;51.658;5.658;2023-07-08T03:00:53;101424.67;;;18.44;53.40
80699;BME280;70062;51.658;5.658;2023-07-08T03:03:18;101426.65;;;18.40;53.53
80699;BME280;70062;51.658;5.658;2023-07-08T03:05:44;101429.49;;;18.36;53.63
80699;BME280;70062;51.658;5.658;2023-07-08T03:08:09;101425.73;;;18.32;53.87
80699;BME280;70062;51.658;5.658;2023-07-08T03:10:34;101426.51;;;18.28;53.89
80699;BME280;70062;51.658;5.658;2023-07-08T03:13:00;101427.99;;;18.25;54.08
80699;BME280;70062;51.658;5.658;2023-07-08T03:15:25;101430.52;;;18.21;54.23
80699;BME280;70062;51.658;5.658;2023-07-08T03:17:50;101430.60;;;18.19;54.26
80699;BME280;70062;51.658;5.658;2023-07-08T03:20:22;101436.78;;;18.16;54.43
80699;BME280;70062;51.658;5.658;2023-07-08T03:22:48;101430.80;;;18.13;54.53
80699;BME280;70062;51.658;5.658;2023-07-08T03:25:13;101428.09;;;18.10;54.64
80699;BME280;70062;51.658;5.658;2023-07-08T03:27:38;101434.64;;;18.08;54.57
80699;BME280;70062;51.658;5.658;2023-07-08T03:30:04;101434.04;;;18.05;54.61
80699;BME280;70062;51.658;5.658;2023-07-08T03:32:30;101442.48;;;18.02;54.76
80699;BME280;70062;51.658;5.658;2023-07-08T03:34:55;101444.66;;;17.99;54.83
80699;BME280;70062;51.658;5.658;2023-07-08T03:37:21;101443.05;;;17.98;54.87
80699;BME280;70062;51.658;5.658;2023-07-08T03:39:46;101442.45;;;17.95;54.95
80699;BME280;70062;51.658;5.658;2023-07-08T03:42:11;101441.02;;;17.93;55.13
80699;BME280;70062;51.658;5.658;2023-07-08T03:44:37;101444.63;;;17.92;55.14
80699;BME280;70062;51.658;5.658;2023-07-08T03:47:02;101442.37;;;17.92;55.31
80699;BME280;70062;51.658;5.658;2023-07-08T03:49:28;101441.81;;;17.91;55.34
80699;BME280;70062;51.658;5.658;2023-07-08T03:51:54;101444.40;;;17.90;55.45
80699;BME280;70062;51.658;5.658;2023-07-08T03:54:23;101444.63;;;17.92;55.33
80699;BME280;70062;51.658;5.658;2023-07-08T03:56:49;101446.55;;;17.92;55.31
80699;BME280;70062;51.658;5.658;2023-07-08T03:59:15;101442.91;;;17.93;55.38
80699;BME280;70062;51.658;5.658;2023-07-08T04:01:40;101446.42;;;17.94;55.43
80699;BME280;70062;51.658;5.658;2023-07-08T04:04:08;101442.48;;;17.96;55.37
80699;BME280;70062;51.658;5.658;2023-07-08T04:06:34;101443.06;;;17.98;55.36
80699;BME280;70062;51.658;5.658;2023-07-08T04:09:00;101446.11;;;18.01;55.36
80699;BME280;70062;51.658;5.658;2023-07-08T04:11:26;101445.00;;;18.05;55.35
80699;BME280;70062;51.658;5.658;2023-07-08T04:13:52;101443.52;;;18.08;55.42
80699;BME280;70062;51.658;5.658;2023-07-08T04:16:21;101445.55;;;18.12;55.33
80699;BME280;70062;51.658;5.658;2023-07-08T04:18:48;101442.36;;;18.16;55.46
80699;BME280;70062;51.658;5.658;2023-07-08T04:21:16;101450.30;;;18.21;55.30
80699;BME280;70062;51.658;5.658;2023-07-08T04:23:42;101452.13;;;18.24;55.16
80699;BME280;70062;51.658;5.658;2023-07-08T04:26:08;101448.58;;;18.27;55.32
80699;BME280;70062;51.658;5.658;2023-07-08T04:28:34;101448.13;;;18.31;55.11
80699;BME280;70062;51.658;5.658;2023-07-08T04:30:59;101447.84;;;18.33;55.07
80699;BME280;70062;51.658;5.658;2023-07-08T04:33:24;101451.77;;;18.37;55.06
80699;BME280;70062;51.658;5.658;2023-07-08T04:35:50;101453.11;;;18.41;54.92
80699;BME280;70062;51.658;5.658;2023-07-08T04:38:21;101452.59;;;18.47;54.75
80699;BME280;70062;51.658;5.658;2023-07-08T04:40:51;101454.35;;;18.55;54.67
80699;BME280;70062;51.658;5.658;2023-07-08T04:43:18;101454.54;;;18.62;54.54
80699;BME280;70062;51.658;5.658;2023-07-08T04:45:45;101450.05;;;18.69;54.35
80699;BME280;70062;51.658;5.658;2023-07-08T04:48:15;101452.17;;;18.78;54.34
80699;BME280;70062;51.658;5.658;2023-07-08T04:50:43;101451.89;;;18.87;54.26
80699;BME280;70062;51.658;5.658;2023-07-08T04:53:10;101452.41;;;18.94;53.91
80699;BME280;70062;51.658;5.658;2023-07-08T04:55:37;101446.67;;;19.01;53.84
80699;BME280;70062;51.658;5.658;2023-07-08T04:58:05;101443.41;;;19.09;53.67
80699;BME280;70062;51.658;5.658;2023-07-08T05:00:30;101445.69;;;19.17;53.57
80699;BME280;70062;51.658;5.658;2023-07-08T05:02:56;101442.04;;;19.25;53.38
80699;BME280;70062;51.658;5.658;2023-07-08T05:05:21;101446.05;;;19.33;53.39
80699;BME280;70062;51.658;5.658;2023-07-08T05:07:46;101445.75;;;19.42;53.06
80699;BME280;70062;51.658;5.658;2023-07-08T05:10:14;101447.70;;;19.51;53.05
80699;BME280;70062;51.658;5.658;2023-07-08T05:12:41;101451.09;;;19.62;52.94
80699;BME280;70062;51.658;5.658;2023-07-08T05:15:06;101449.23;;;19.73;52.82
80699;BME280;70062;51.658;5.658;2023-07-08T05:17:32;101441.42;;;19.82;52.54
80699;BME280;70062;51.658;5.658;2023-07-08T05:19:57;101432.58;;;19.93;52.19
80699;BME280;70062;51.658;5.658;2023-07-08T05:22:26;101433.33;;;20.04;52.05
80699;BME280;70062;51.658;5.658;2023-07-08T05:24:53;101439.29;;;20.15;51.68
80699;BME280;70062;51.658;5.658;2023-07-08T05:27:22;101441.41;;;20.26;51.52
80699;BME280;70062;51.658;5.658;2023-07-08T05:29:48;101446.14;;;20.36;51.41
80699;BME280;70062;51.658;5.658;2023-07-08T05:32:14;101442.33;;;20.45;51.08
80699;BME280;70062;51.658;5.658;2023-07-08T05:34:39;101444.60;;;20.56;50.96
80699;BME280;70062;51.658;5.658;2023-07-08T05:37:05;101440.21;;;20.64;50.70
80699;BME280;70062;51.658;5.658;2023-07-08T05:39:31;101443.34;;;20.73;50.47
80699;BME280;70062;51.658;5.658;2023-07-08T05:41:57;101447.56;;;20.84;50.33
80699;BME280;70062;51.658;5.658;2023-07-08T05:44:22;101444.95;;;20.96;50.17
80699;BME280;70062;51.658;5.658;2023-07-08T05:46:48;101444.10;;;21.07;49.90
80699;BME280;70062;51.658;5.658;2023-07-08T05:49:14;101441.16;;;21.20;49.60
80699;BME280;70062;51.658;5.658;2023-07-08T05:51:39;101439.07;;;21.31;49.34
80699;BME280;70062;51.658;5.658;2023-07-08T05:54:05;101442.91;;;21.42;49.06
80699;BME280;70062;51.658;5.658;2023-07-08T05:56:30;101432.92;;;21.53;48.93
80699;BME280;70062;51.658;5.658;2023-07-08T05:58:56;101429.90;;;21.63;48.57
80699;BME280;70062;51.658;5.658;2023-07-08T06:01:21;101431.96;;;21.73;48.46
80699;BME280;70062;51.658;5.658;2023-07-08T06:03:47;101437.15;;;21.83;48.18
80699;BME280;70062;51.658;5.658;2023-07-08T06:06:12;101438.30;;;21.92;47.90
80699;BME280;70062;51.658;5.658;2023-07-08T06:08:38;101445.76;;;22.00;47.85
80699;BME280;70062;51.658;5.658;2023-07-08T06:11:04;101443.61;;;22.09;47.59
80699;BME280;70062;51.658;5.658;2023-07-08T06:13:29;101441.61;;;22.18;47.55
80699;BME280;70062;51.658;5.658;2023-07-08T06:15:55;101442.90;;;22.24;47.35
80699;BME280;70062;51.658;5.658;2023-07-08T06:18:20;101446.14;;;22.33;47.29
80699;BME280;70062;51.658;5.658;2023-07-08T06:20:56;101445.54;;;22.43;47.07
80699;BME280;70062;51.658;5.658;2023-07-08T06:23:23;101441.08;;;22.51;46.92
80699;BME280;70062;51.658;5.658;2023-07-08T06:25:48;101444.16;;;22.60;46.74
80699;BME280;70062;51.658;5.658;2023-07-08T06:28:14;101444.38;;;22.64;46.78
80699;BME280;70062;51.658;5.658;2023-07-08T06:30:40;101452.69;;;22.73;46.69
80699;BME280;70062;51.658;5.658;2023-07-08T06:33:05;101454.16;;;22.80;46.42
80699;BME280;70062;51.658;5.658;2023-07-08T06:35:31;101449.33;;;22.88;46.35
80699;BME280;70062;51.658;5.658;2023-07-08T06:37:56;101455.02;;;22.97;46.34
80699;BME280;70062;51.658;5.658;2023-07-08T06:40:22;101452.62;;;23.05;45.92
80699;BME280;70062;51.658;5.658;2023-07-08T06:42:47;101450.60;;;23.15;45.92
80699;BME280;70062;51.658;5.658;2023-07-08T06:45:13;101450.32;;;23.26;45.58
80699;BME280;70062;51.658;5.658;2023-07-08T06:47:38;101446.88;;;23.35;45.26
80699;BME280;70062;51.658;5.658;2023-07-08T06:50:04;101448.68;;;23.44;45.25
80699;BME280;70062;51.658;5.658;2023-07-08T06:52:30;101448.59;;;23.56;44.86
80699;BME280;70062;51.658;5.658;2023-07-08T06:55:00;101448.66;;;23.66;44.73
80699;BME280;70062;51.658;5.658;2023-07-08T06:57:26;101443.45;;;23.78;44.61
80699;BME280;70062;51.658;5.658;2023-07-08T06:59:55;101442.80;;;23.91;44.26
80699;BME280;70062;51.658;5.658;2023-07-08T07:02:20;101441.79;;;24.04;43.96
80699;BME280;70062;51.658;5.658;2023-07-08T07:04:49;101437.09;;;24.15;43.94
80699;BME280;70062;51.658;5.658;2023-07-08T07:07:14;101437.15;;;24.26;43.55
80699;BME280;70062;51.658;5.658;2023-07-08T07:09:39;101435.45;;;24.39;43.18
80699;BME280;70062;51.658;5.658;2023-07-08T07:12:06;101434.58;;;24.50;43.08
80699;BME280;70062;51.658;5.658;2023-07-08T07:14:32;101433.02;;;24.63;42.92
80699;BME280;70062;51.658;5.658;2023-07-08T07:16:58;101430.55;;;24.77;42.66
80699;BME280;70062;51.658;5.658;2023-07-08T07:19:24;101435.48;;;24.89;42.52
80699;BME280;70062;51.658;5.658;2023-07-08T07:21:50;101438.66;;;25.02;42.33
80699;BME280;70062;51.658;5.658;2023-07-08T07:24:16;101435.83;;;25.12;41.99
80699;BME280;70062;51.658;5.658;2023-07-08T07:26:41;101434.59;;;25.23;41.64
80699;BME280;70062;51.658;5.658;2023-07-08T07:29:07;101437.73;;;25.34;41.44
80699;BME280;70062;51.658;5.658;2023-07-08T07:31:32;101436.64;;;25.43;41.41
80699;BME280;70062;51.658;5.658;2023-07-08T07:33:59;101426.78;;;25.50;40.80
80699;BME280;70062;51.658;5.658;2023-07-08T07:36:26;101426.57;;;25.59;40.68
80699;BME280;70062;51.658;5.658;2023-07-08T07:38:51;101425.33;;;25.68;40.16
80699;BME280;70062;51.658;5.658;2023-07-08T07:41:17;101421.79;;;25.77;39.92
80699;BME280;70062;51.658;5.658;2023-07-08T07:43:42;101424.38;;;25.86;39.82
80699;BME280;70062;51.658;5.658;2023-07-08T07:46:07;101431.90;;;25.98;39.51
80699;BME280;70062;51.658;5.658;2023-07-08T07:48:33;101430.64;;;26.08;39.36
80699;BME280;70062;51.658;5.658;2023-07-08T07:50:59;101423.86;;;26.22;39.06
80699;BME280;70062;51.658;5.658;2023-07-08T07:53:27;101423.11;;;26.32;38.71
80699;BME280;70062;51.658;5.658;2023-07-08T07:56:00;101425.54;;;26.40;38.67
80699;BME280;70062;51.658;5.658;2023-07-08T07:58:26;101429.16;;;26.49;38.46
80699;BME280;70062;51.658;5.658;2023-07-08T08:00:51;101426.83;;;26.56;38.36
80699;BME280;70062;51.658;5.658;2023-07-08T08:03:17;101427.48;;;26.62;38.36
80699;BME280;70062;51.658;5.658;2023-07-08T08:05:42;101429.18;;;26.70;38.22
80699;BME280;70062;51.658;5.658;2023-07-08T08:08:08;101432.29;;;26.78;38.31
80699;BME280;70062;51.658;5.658;2023-07-08T08:10:37;101434.67;;;26.87;38.10
80699;BME280;70062;51.658;5.658;2023-07-08T08:13:02;101433.17;;;26.98;38.07
80699;BME280;70062;51.658;5.658;2023-07-08T08:15:31;101431.31;;;27.10;38.29
80699;BME280;70062;51.658;5.658;2023-07-08T08:17:56;101430.71;;;27.17;38.12
80699;BME280;70062;51.658;5.658;2023-07-08T08:20:24;101434.70;;;27.25;38.34
80699;BME280;70062;51.658;5.658;2023-07-08T08:22:50;101433.70;;;27.35;38.04
80699;BME280;70062;51.658;5.658;2023-07-08T08:25:17;101437.84;;;27.43;38.14
80699;BME280;70062;51.658;5.658;2023-07-08T08:27:43;101441.60;;;27.53;37.94
80699;BME280;70062;51.658;5.658;2023-07-08T08:30:10;101441.16;;;27.63;37.89
80699;BME280;70062;51.658;5.658;2023-07-08T08:32:35;101440.00;;;27.73;38.00
80699;BME280;70062;51.658;5.658;2023-07-08T08:35:01;101440.01;;;27.87;37.76
80699;BME280;70062;51.658;5.658;2023-07-08T08:37:27;101447.60;;;28.00;37.60
80699;BME280;70062;51.658;5.658;2023-07-08T08:39:55;101454.31;;;28.13;37.42
80699;BME280;70062;51.658;5.658;2023-07-08T08:42:30;101457.86;;;28.26;37.09
80699;BME280;70062;51.658;5.658;2023-07-08T08:45:00;101459.27;;;28.39;37.20
80699;BME280;70062;51.658;5.658;2023-07-08T08:47:39;101463.30;;;28.53;36.82
80699;BME280;70062;51.658;5.658;2023-07-08T08:52:57;101455.94;;;28.83;36.04
80699;BME280;70062;51.658;5.658;2023-07-08T08:55:24;101454.98;;;28.98;35.62
80699;BME280;70062;51.658;5.658;2023-07-08T08:58:05;101457.00;;;29.13;35.62
80699;BME280;70062;51.658;5.658;2023-07-08T09:03:14;101458.36;;;29.47;34.99
80699;BME280;70062;51.658;5.658;2023-07-08T09:05:42;101450.98;;;29.63;34.77
80699;BME280;70062;51.658;5.658;2023-07-08T09:08:16;101447.26;;;29.81;34.60
80699;BME280;70062;51.658;5.658;2023-07-08T09:10:54;101447.95;;;29.98;34.18
80699;BME280;70062;51.658;5.658;2023-07-08T09:13:33;101449.94;;;30.13;33.87
80699;BME280;70062;51.658;5.658;2023-07-08T09:18:36;101451.84;;;30.38;33.38
80699;BME280;70062;51.658;5.658;2023-07-08T09:21:17;101451.73;;;30.50;33.04
80699;BME280;70062;51.658;5.658;2023-07-08T09:23:47;101455.50;;;30.64;32.75
80699;BME280;70062;51.658;5.658;2023-07-08T09:26:21;101458.20;;;30.77;32.56
80699;BME280;70062;51.658;5.658;2023-07-08T09:28:51;101455.75;;;30.89;32.23
80699;BME280;70062;51.658;5.658;2023-07-08T09:31:24;101455.69;;;31.05;31.97
80699;BME280;70062;51.658;5.658;2023-07-08T09:36:41;101453.22;;;31.40;31.73
80699;BME280;70062;51.658;5.658;2023-07-08T09:39:12;101448.05;;;31.53;31.52
80699;BME280;70062;51.658;5.658;2023-07-08T09:41:44;101447.32;;;31.67;31.20
80699;BME280;70062;51.658;5.658;2023-07-08T09:46:52;101445.08;;;32.01;30.76
80699;BME280;70062;51.658;5.658;2023-07-08T09:49:31;101444.52;;;32.13;30.63
80699;BME280;70062;51.658;5.658;2023-07-08T09:51:58;101444.44;;;32.28;29.84
80699;BME280;70062;51.658;5.658;2023-07-08T09:54:25;101446.23;;;32.44;29.83
80699;BME280;70062;51.658;5.658;2023-07-08T09:57:00;101443.73;;;32.55;29.52
80699;BME280;70062;51.658;5.658;2023-07-08T09:59:32;101446.96;;;32.60;29.07
80699;BME280;70062;51.658;5.658;2023-07-08T10:02:22;101450.45;;;32.67;29.33
80699;BME280;70062;51.658;5.658;2023-07-08T10:04:55;101450.77;;;32.85;28.72
80699;BME280;70062;51.658;5.658;2023-07-08T10:07:21;101448.52;;;33.05;28.63
80699;BME280;70062;51.658;5.658;2023-07-08T10:09:52;101449.44;;;33.24;27.83
80699;BME280;70062;51.658;5.658;2023-07-08T10:12:21;101441.45;;;33.43;27.43
80699;BME280;70062;51.658;5.658;2023-07-08T10:14:51;101436.32;;;33.57;27.05
80699;BME280;70062;51.658;5.658;2023-07-08T10:17:20;101435.27;;;33.70;26.98
80699;BME280;70062;51.658;5.658;2023-07-08T10:19:47;101427.92;;;33.87;26.52
80699;BME280;70062;51.658;5.658;2023-07-08T10:25:08;101418.09;;;34.27;25.28
80699;BME280;70062;51.658;5.658;2023-07-08T10:27:53;101421.26;;;34.47;24.47
80699;BME280;70062;51.658;5.658;2023-07-08T10:35:33;101417.02;;;34.93;23.55
80699;BME280;70062;51.658;5.658;2023-07-08T10:38:34;101423.08;;;35.09;23.37
80699;BME280;70062;51.658;5.658;2023-07-08T10:43:45;101419.48;;;35.42;22.23
80699;BME280;70062;51.658;5.658;2023-07-08T10:46:42;101420.38;;;35.54;22.10
80699;BME280;70062;51.658;5.658;2023-07-08T10:54:50;101427.21;;;36.10;21.02
80699;BME280;70062;51.658;5.658;2023-07-08T10:59:59;101430.01;;;36.55;19.03
80699;BME280;70062;51.658;5.658;2023-07-08T11:02:58;101433.30;;;36.76;19.11
80699;BME280;70062;51.658;5.658;2023-07-08T11:05:41;101431.38;;;36.99;18.91
80699;BME280;70062;51.658;5.658;2023-07-08T11:11:06;101422.90;;;37.38;19.18
80699;BME280;70062;51.658;5.658;2023-07-08T11:13:39;101419.60;;;37.55;19.24
80699;BME280;70062;51.658;5.658;2023-07-08T11:16:17;101420.80;;;37.70;19.00
80699;BME280;70062;51.658;5.658;2023-07-08T11:21:24;101421.27;;;37.94;18.94
80699;BME280;70062;51.658;5.658;2023-07-08T11:24:02;101423.10;;;38.02;19.00
80699;BME280;70062;51.658;5.658;2023-07-08T11:26:33;101422.80;;;38.11;19.49
80699;BME280;70062;51.658;5.658;2023-07-08T11:29:04;101422.33;;;38.23;19.36
80699;BME280;70062;51.658;5.658;2023-07-08T11:31:35;101421.14;;;38.37;19.06
80699;BME280;70062;51.658;5.658;2023-07-08T11:34:01;101424.34;;;38.50;18.97
80699;BME280;70062;51.658;5.658;2023-07-08T11:36:29;101425.80;;;38.65;18.68
80699;BME280;70062;51.658;5.658;2023-07-08T11:38:56;101424.46;;;38.84;18.99
80699;BME280;70062;51.658;5.658;2023-07-08T11:41:42;101422.61;;;39.03;19.03
80699;BME280;70062;51.658;5.658;2023-07-08T11:44:11;101421.26;;;39.22;19.04
80699;BME280;70062;51.658;5.658;2023-07-08T11:46:53;101416.63;;;39.36;19.09
80699;BME280;70062;51.658;5.658;2023-07-08T11:49:19;101417.54;;;39.53;18.86
80699;BME280;70062;51.658;5.658;2023-07-08T11:51:48;101417.92;;;39.69;18.63
80699;BME280;70062;51.658;5.658;2023-07-08T11:54:20;101415.80;;;39.80;18.69
80699;BME280;70062;51.658;5.658;2023-07-08T12:09:26;101412.79;;;41.38;16.71
80699;BME280;70062;51.658;5.658;2023-07-08T12:12:14;101410.27;;;41.72;16.02
80699;BME280;70062;51.658;5.658;2023-07-08T12:14:40;101408.61;;;41.80;15.60
80699;BME280;70062;51.658;5.658;2023-07-08T12:17:11;101407.23;;;41.94;15.33
80699;BME280;70062;51.658;5.658;2023-07-08T12:19:37;101403.77;;;42.09;15.41
80699;BME280;70062;51.658;5.658;2023-07-08T12:22:08;101403.95;;;42.35;15.45
80699;BME280;70062;51.658;5.658;2023-07-08T12:24:33;101401.86;;;42.72;15.26
80699;BME280;70062;51.658;5.658;2023-07-08T12:33:19;101387.11;;;45.40;13.51
80699;BME280;70062;51.658;5.658;2023-07-08T12:35:47;101385.08;;;46.66;12.72
80699;BME280;70062;51.658;5.658;2023-07-08T12:38:37;101381.22;;;47.86;11.79
80699;BME280;70062;51.658;5.658;2023-07-08T12:41:36;101380.34;;;48.94;11.18
80699;BME280;70062;51.658;5.658;2023-07-08T12:50:51;101382.55;;;51.96;9.01
80699;BME280;70062;51.658;5.658;2023-07-08T12:53:16;101382.59;;;52.77;7.98
80699;BME280;70062;51.658;5.658;2023-07-08T12:55:44;101378.61;;;53.35;7.79
80699;BME280;70062;51.658;5.658;2023-07-08T12:58:22;101378.70;;;53.88;7.05
80699;BME280;70062;51.658;5.658;2023-07-08T13:11:42;101381.41;;;57.01;5.53
80699;BME280;70062;51.658;5.658;2023-07-08T13:14:08;101381.33;;;57.97;4.92
80699;BME280;70062;51.658;5.658;2023-07-08T13:16:34;101383.02;;;58.13;4.80
80699;BME280;70062;51.658;5.658;2023-07-08T13:19:01;101384.70;;;58.38;4.82
80699;BME280;70062;51.658;5.658;2023-07-08T13:21:28;101382.29;;;58.68;4.71
80699;BME280;70062;51.658;5.658;2023-07-08T13:23:56;101382.80;;;59.02;4.52
80699;BME280;70062;51.658;5.658;2023-07-08T13:26:24;101383.77;;;59.34;4.33
80699;BME280;70062;51.658;5.658;2023-07-08T13:28:59;101383.27;;;59.69;4.15
80699;BME280;70062;51.658;5.658;2023-07-08T13:31:32;101384.34;;;60.05;4.16
80699;BME280;70062;51.658;5.658;2023-07-08T13:34:06;101384.83;;;60.40;3.86
80699;BME280;70062;51.658;5.658;2023-07-08T13:36:35;101389.80;;;60.56;3.83
80699;BME280;70062;51.658;5.658;2023-07-08T13:39:07;101389.02;;;60.79;3.63
80699;BME280;70062;51.658;5.658;2023-07-08T13:41:34;101386.48;;;61.07;3.58
80699;BME280;70062;51.658;5.658;2023-07-08T13:44:07;101388.97;;;61.33;3.31
80699;BME280;70062;51.658;5.658;2023-07-08T13:46:34;101385.64;;;61.59;3.02
80699;BME280;70062;51.658;5.658;2023-07-08T13:49:12;101383.20;;;61.70;2.87
80699;BME280;70062;51.658;5.658;2023-07-08T13:51:39;101380.19;;;61.65;2.95
80699;BME280;70062;51.658;5.658;2023-07-08T13:56:47;101369.57;;;61.74;3.13
80699;BME280;70062;51.658;5.658;2023-07-08T13:59:23;101367.21;;;61.95;2.67
80699;BME280;70062;51.658;5.658;2023-07-08T14:01:54;101364.13;;;62.17;2.69
80699;BME280;70062;51.658;5.658;2023-07-08T14:04:28;101367.38;;;62.45;2.67
80699;BME280;70062;51.658;5.658;2023-07-08T14:06:55;101373.18;;;62.86;2.56
80699;BME280;70062;51.658;5.658;2023-07-08T14:09:21;101375.21;;;63.18;2.09
80699;BME280;70062;51.658;5.658;2023-07-08T14:11:48;101375.10;;;63.41;2.21
80699;BME280;70062;51.658;5.658;2023-07-08T14:14:15;101371.95;;;63.67;2.20
80699;BME280;70062;51.658;5.658;2023-07-08T14:16:51;101374.69;;;63.85;1.94
80699;BME280;70062;51.658;5.658;2023-07-08T14:19:23;101377.02;;;63.94;2.04
80699;BME280;70062;51.658;5.658;2023-07-08T14:21:56;101375.91;;;64.09;1.71
80699;BME280;70062;51.658;5.658;2023-07-08T14:24:22;101375.98;;;64.29;1.87